KAUM/AUM METAR and TAF weather

Enter ICAO airport designator
Station Type Date Time Source
KAUM METAR 2022/11/27 08:15 UTC NOAA

KAUM 270815Z AUTO 01009G14KT 10SM CLR 03/00 A2969 RMK AO2


Station Type Date Time Source
KAUM Decoded METAR 2022/11/27 08:15 UTC NOAA

Austin Municipal, MN, United States (KAUM) 43-40N 092-56W
Nov 27, 2022 - 03:15 AM EST / 2022.11.27 0815 UTC
Wind: from the N (010 degrees) at 10 MPH (9 KT) gusting to 16 MPH (14 KT):0
Visibility: 10 mile(s):0
Sky conditions: clear
Temperature: 37 F (3 C)
Dew Point: 32 F (0 C)
Relative Humidity: 80%
Pressure (altimeter): 29.69 in. Hg (1005 hPa)
ob: KAUM 270815Z AUTO 01009G14KT 10SM CLR 03/00 A2969 RMK AO2
cycle: 8

Station Type Date Time Source
KAUM TAF UTC NOAA

Error!

Example: see airport list